sensor_id;sensor_type;location;lat;lon;timestamp;temperature;humidity
12957;DHT22;6543;48.836;10.092;2022-09-21T00:01:47;6.10;99.90
12957;DHT22;6543;48.836;10.092;2022-09-21T00:04:14;6.10;99.90
12957;DHT22;6543;48.836;10.092;2022-09-21T00:06:41;6.10;99.90
12957;DHT22;6543;48.836;10.092;2022-09-21T00:09:09;6.10;99.90
12957;DHT22;6543;48.836;10.092;2022-09-21T00:11:36;6.10;99.90
12957;DHT22;6543;48.836;10.092;2022-09-21T00:14:05;6.00;99.90
12957;DHT22;6543;48.836;10.092;2022-09-21T00:16:33;6.00;99.90
12957;DHT22;6543;48.836;10.092;2022-09-21T00:19:00;5.90;99.90
12957;DHT22;6543;48.836;10.092;2022-09-21T00:21:27;5.90;99.90
12957;DHT22;6543;48.836;10.092;2022-09-21T00:23:55;5.80;99.90
12957;DHT22;6543;48.836;10.092;2022-09-21T00:26:25;5.70;99.90
12957;DHT22;6543;48.836;10.092;2022-09-21T00:28:53;5.70;99.90
12957;DHT22;6543;48.836;10.092;2022-09-21T00:31:21;5.80;99.90
12957;DHT22;6543;48.836;10.092;2022-09-21T00:33:48;5.70;99.90
12957;DHT22;6543;48.836;10.092;2022-09-21T00:36:17;5.70;99.90
12957;DHT22;6543;48.836;10.092;2022-09-21T00:38:44;5.80;99.90
12957;DHT22;6543;48.836;10.092;2022-09-21T00:41:12;5.70;99.90
12957;DHT22;6543;48.836;10.092;2022-09-21T00:43:45;5.70;99.90
12957;DHT22;6543;48.836;10.092;2022-09-21T00:46:15;5.70;99.90
12957;DHT22;6543;48.836;10.092;2022-09-21T00:48:47;5.60;99.90
12957;DHT22;6543;48.836;10.092;2022-09-21T00:51:14;5.60;99.90
12957;DHT22;6543;48.836;10.092;2022-09-21T00:53:41;5.50;99.90
12957;DHT22;6543;48.836;10.092;2022-09-21T00:56:09;5.40;99.90
12957;DHT22;6543;48.836;10.092;2022-09-21T00:58:42;5.40;99.90
12957;DHT22;6543;48.836;10.092;2022-09-21T01:01:11;5.50;99.90
12957;DHT22;6543;48.836;10.092;2022-09-21T01:03:41;5.30;99.90
12957;DHT22;6543;48.836;10.092;2022-09-21T01:06:10;5.30;99.90
12957;DHT22;6543;48.836;10.092;2022-09-21T01:08:37;5.30;99.90
12957;DHT22;6543;48.836;10.092;2022-09-21T01:11:24;5.20;99.90
12957;DHT22;6543;48.836;10.092;2022-09-21T01:14:11;5.40;99.90
12957;DHT22;6543;48.836;10.092;2022-09-21T01:16:45;5.20;99.90
12957;DHT22;6543;48.836;10.092;2022-09-21T01:19:28;5.30;99.90
12957;DHT22;6543;48.836;10.092;2022-09-21T01:22:01;5.30;99.90
12957;DHT22;6543;48.836;10.092;2022-09-21T01:24:45;5.10;99.90
12957;DHT22;6543;48.836;10.092;2022-09-21T01:27:41;5.00;99.90
12957;DHT22;6543;48.836;10.092;2022-09-21T01:30:13;4.90;99.90
12957;DHT22;6543;48.836;10.092;2022-09-21T01:32:44;4.90;99.90
12957;DHT22;6543;48.836;10.092;2022-09-21T01:35:15;5.00;99.90
12957;DHT22;6543;48.836;10.092;2022-09-21T01:37:45;5.10;99.90
12957;DHT22;6543;48.836;10.092;2022-09-21T01:40:16;5.10;99.90
12957;DHT22;6543;48.836;10.092;2022-09-21T01:42:47;5.00;99.90
12957;DHT22;6543;48.836;10.092;2022-09-21T01:45:18;5.00;99.90
12957;DHT22;6543;48.836;10.092;2022-09-21T01:47:48;5.10;99.90
12957;DHT22;6543;48.836;10.092;2022-09-21T01:50:18;5.10;99.90
12957;DHT22;6543;48.836;10.092;2022-09-21T01:52:49;5.10;99.90
12957;DHT22;6543;48.836;10.092;2022-09-21T01:55:22;5.20;99.90
12957;DHT22;6543;48.836;10.092;2022-09-21T01:57:55;5.00;99.90
12957;DHT22;6543;48.836;10.092;2022-09-21T02:00:28;5.20;99.90
12957;DHT22;6543;48.836;10.092;2022-09-21T02:02:59;5.10;99.90
12957;DHT22;6543;48.836;10.092;2022-09-21T02:05:29;5.20;99.90
12957;DHT22;6543;48.836;10.092;2022-09-21T02:07:57;5.10;99.90
12957;DHT22;6543;48.836;10.092;2022-09-21T02:10:29;5.10;99.90
12957;DHT22;6543;48.836;10.092;2022-09-21T02:13:00;5.10;99.90
12957;DHT22;6543;48.836;10.092;2022-09-21T02:15:36;5.20;99.90
12957;DHT22;6543;48.836;10.092;2022-09-21T02:18:10;5.00;99.90
12957;DHT22;6543;48.836;10.092;2022-09-21T02:20:46;5.20;99.90
12957;DHT22;6543;48.836;10.092;2022-09-21T02:23:22;5.00;99.90
12957;DHT22;6543;48.836;10.092;2022-09-21T02:25:55;5.10;99.90
12957;DHT22;6543;48.836;10.092;2022-09-21T02:28:30;4.90;99.90
12957;DHT22;6543;48.836;10.092;2022-09-21T02:31:09;4.90;99.90
12957;DHT22;6543;48.836;10.092;2022-09-21T02:33:46;5.00;99.90
12957;DHT22;6543;48.836;10.092;2022-09-21T02:36:18;5.00;99.90
12957;DHT22;6543;48.836;10.092;2022-09-21T02:38:50;4.90;99.90
12957;DHT22;6543;48.836;10.092;2022-09-21T02:41:21;5.00;99.90
12957;DHT22;6543;48.836;10.092;2022-09-21T02:43:55;4.90;99.90
12957;DHT22;6543;48.836;10.092;2022-09-21T02:46:28;5.00;99.90
12957;DHT22;6543;48.836;10.092;2022-09-21T02:49:02;4.90;99.90
12957;DHT22;6543;48.836;10.092;2022-09-21T02:51:34;4.90;99.90
12957;DHT22;6543;48.836;10.092;2022-09-21T02:54:03;4.80;99.90
12957;DHT22;6543;48.836;10.092;2022-09-21T02:56:32;4.50;99.90
12957;DHT22;6543;48.836;10.092;2022-09-21T02:59:02;4.30;99.90
12957;DHT22;6543;48.836;10.092;2022-09-21T03:01:32;4.30;99.90
12957;DHT22;6543;48.836;10.092;2022-09-21T03:03:59;4.20;99.90
12957;DHT22;6543;48.836;10.092;2022-09-21T03:06:26;4.20;99.90
12957;DHT22;6543;48.836;10.092;2022-09-21T03:08:53;4.10;99.90
12957;DHT22;6543;48.836;10.092;2022-09-21T03:11:21;4.20;99.90
12957;DHT22;6543;48.836;10.092;2022-09-21T03:13:48;4.20;99.90
12957;DHT22;6543;48.836;10.092;2022-09-21T03:16:15;4.30;99.90
12957;DHT22;6543;48.836;10.092;2022-09-21T03:18:44;4.40;99.90
12957;DHT22;6543;48.836;10.092;2022-09-21T03:21:11;4.50;99.90
12957;DHT22;6543;48.836;10.092;2022-09-21T03:23:38;4.50;99.90
12957;DHT22;6543;48.836;10.092;2022-09-21T03:26:05;4.30;99.90
12957;DHT22;6543;48.836;10.092;2022-09-21T03:28:33;4.30;99.90
12957;DHT22;6543;48.836;10.092;2022-09-21T03:31:00;4.40;99.90
12957;DHT22;6543;48.836;10.092;2022-09-21T03:33:26;4.40;99.90
12957;DHT22;6543;48.836;10.092;2022-09-21T03:35:55;4.20;99.90
12957;DHT22;6543;48.836;10.092;2022-09-21T03:38:22;4.10;99.90
12957;DHT22;6543;48.836;10.092;2022-09-21T03:40:49;4.10;99.90
12957;DHT22;6543;48.836;10.092;2022-09-21T03:43:16;4.00;99.90
12957;DHT22;6543;48.836;10.092;2022-09-21T03:45:43;4.00;99.90
12957;DHT22;6543;48.836;10.092;2022-09-21T03:48:11;4.10;99.90
12957;DHT22;6543;48.836;10.092;2022-09-21T03:50:40;4.10;99.90
12957;DHT22;6543;48.836;10.092;2022-09-21T03:53:08;4.00;99.90
12957;DHT22;6543;48.836;10.092;2022-09-21T03:55:36;4.10;99.90
12957;DHT22;6543;48.836;10.092;2022-09-21T03:58:03;4.10;99.90
12957;DHT22;6543;48.836;10.092;2022-09-21T04:00:30;4.00;99.90
12957;DHT22;6543;48.836;10.092;2022-09-21T04:02:57;3.90;99.90
12957;DHT22;6543;48.836;10.092;2022-09-21T04:05:24;3.80;99.90
12957;DHT22;6543;48.836;10.092;2022-09-21T04:07:53;3.80;99.90
12957;DHT22;6543;48.836;10.092;2022-09-21T04:10:23;3.70;99.90
12957;DHT22;6543;48.836;10.092;2022-09-21T04:12:53;3.70;99.90
12957;DHT22;6543;48.836;10.092;2022-09-21T04:15:22;3.60;99.90
12957;DHT22;6543;48.836;10.092;2022-09-21T04:17:50;3.70;99.90
12957;DHT22;6543;48.836;10.092;2022-09-21T04:20:18;3.70;99.90
12957;DHT22;6543;48.836;10.092;2022-09-21T04:22:45;3.60;99.90
12957;DHT22;6543;48.836;10.092;2022-09-21T04:25:12;3.60;99.90
12957;DHT22;6543;48.836;10.092;2022-09-21T04:27:41;3.50;99.90
12957;DHT22;6543;48.836;10.092;2022-09-21T04:30:10;3.50;99.90
12957;DHT22;6543;48.836;10.092;2022-09-21T04:32:38;3.40;99.90
12957;DHT22;6543;48.836;10.092;2022-09-21T04:35:05;3.30;99.90
12957;DHT22;6543;48.836;10.092;2022-09-21T04:37:32;3.30;99.90
12957;DHT22;6543;48.836;10.092;2022-09-21T04:39:59;3.30;99.90
12957;DHT22;6543;48.836;10.092;2022-09-21T04:42:25;3.30;99.90
12957;DHT22;6543;48.836;10.092;2022-09-21T04:44:55;3.90;99.90
12957;DHT22;6543;48.836;10.092;2022-09-21T04:47:22;3.70;99.90
12957;DHT22;6543;48.836;10.092;2022-09-21T04:49:50;3.70;99.90
12957;DHT22;6543;48.836;10.092;2022-09-21T04:52:18;3.70;99.90
12957;DHT22;6543;48.836;10.092;2022-09-21T04:54:45;3.80;99.90
12957;DHT22;6543;48.836;10.092;2022-09-21T04:57:12;3.80;99.90
12957;DHT22;6543;48.836;10.092;2022-09-21T04:59:39;3.80;99.90
12957;DHT22;6543;48.836;10.092;2022-09-21T05:02:07;3.70;99.90
12957;DHT22;6543;48.836;10.092;2022-09-21T05:04:34;3.70;99.90
12957;DHT22;6543;48.836;10.092;2022-09-21T05:07:01;3.70;99.90
12957;DHT22;6543;48.836;10.092;2022-09-21T05:09:28;3.80;99.90
12957;DHT22;6543;48.836;10.092;2022-09-21T05:12:12;3.90;99.90
12957;DHT22;6543;48.836;10.092;2022-09-21T05:14:39;3.90;99.90
12957;DHT22;6543;48.836;10.092;2022-09-21T05:17:10;3.90;99.90
12957;DHT22;6543;48.836;10.092;2022-09-21T05:19:37;3.90;99.90
12957;DHT22;6543;48.836;10.092;2022-09-21T05:22:04;3.80;99.90
12957;DHT22;6543;48.836;10.092;2022-09-21T05:24:31;3.80;99.90
12957;DHT22;6543;48.836;10.092;2022-09-21T05:26:58;3.80;99.90
12957;DHT22;6543;48.836;10.092;2022-09-21T05:29:25;3.80;99.90
12957;DHT22;6543;48.836;10.092;2022-09-21T05:31:56;3.80;99.90
12957;DHT22;6543;48.836;10.092;2022-09-21T05:34:46;3.90;99.90
12957;DHT22;6543;48.836;10.092;2022-09-21T05:37:32;3.90;99.90
12957;DHT22;6543;48.836;10.092;2022-09-21T05:40:03;3.80;99.90
12957;DHT22;6543;48.836;10.092;2022-09-21T05:42:30;3.80;99.90
12957;DHT22;6543;48.836;10.092;2022-09-21T05:44:57;3.80;99.90
12957;DHT22;6543;48.836;10.092;2022-09-21T05:47:36;3.80;99.90
12957;DHT22;6543;48.836;10.092;2022-09-21T05:50:18;3.80;99.90
12957;DHT22;6543;48.836;10.092;2022-09-21T05:52:57;3.90;99.90
12957;DHT22;6543;48.836;10.092;2022-09-21T05:55:33;4.00;99.90
12957;DHT22;6543;48.836;10.092;2022-09-21T05:58:08;4.10;99.90
12957;DHT22;6543;48.836;10.092;2022-09-21T06:00:41;4.10;99.90
12957;DHT22;6543;48.836;10.092;2022-09-21T06:03:26;4.10;99.90
12957;DHT22;6543;48.836;10.092;2022-09-21T06:05:56;4.20;99.90
12957;DHT22;6543;48.836;10.092;2022-09-21T06:08:23;4.30;99.90
12957;DHT22;6543;48.836;10.092;2022-09-21T06:10:51;4.40;99.90
12957;DHT22;6543;48.836;10.092;2022-09-21T06:13:18;4.40;99.90
12957;DHT22;6543;48.836;10.092;2022-09-21T06:15:46;4.50;99.90
12957;DHT22;6543;48.836;10.092;2022-09-21T06:18:12;4.50;99.90
12957;DHT22;6543;48.836;10.092;2022-09-21T06:20:39;4.60;99.90
12957;DHT22;6543;48.836;10.092;2022-09-21T06:23:09;4.70;99.90
12957;DHT22;6543;48.836;10.092;2022-09-21T06:25:37;4.70;99.90
12957;DHT22;6543;48.836;10.092;2022-09-21T06:28:05;4.90;99.90
12957;DHT22;6543;48.836;10.092;2022-09-21T06:30:32;5.00;99.90
12957;DHT22;6543;48.836;10.092;2022-09-21T06:32:59;5.00;99.90
12957;DHT22;6543;48.836;10.092;2022-09-21T06:35:27;5.10;99.90
12957;DHT22;6543;48.836;10.092;2022-09-21T06:37:57;5.20;99.90
12957;DHT22;6543;48.836;10.092;2022-09-21T06:40:25;5.30;99.90
12957;DHT22;6543;48.836;10.092;2022-09-21T06:42:55;5.50;99.90
12957;DHT22;6543;48.836;10.092;2022-09-21T06:45:22;5.60;99.90
12957;DHT22;6543;48.836;10.092;2022-09-21T06:47:49;5.60;99.90
12957;DHT22;6543;48.836;10.092;2022-09-21T06:50:16;5.80;99.90
12957;DHT22;6543;48.836;10.092;2022-09-21T06:52:43;5.90;99.90
12957;DHT22;6543;48.836;10.092;2022-09-21T06:55:11;6.00;99.90
12957;DHT22;6543;48.836;10.092;2022-09-21T06:57:39;6.20;99.90
12957;DHT22;6543;48.836;10.092;2022-09-21T07:00:08;6.30;99.90
12957;DHT22;6543;48.836;10.092;2022-09-21T07:02:36;6.50;99.90
12957;DHT22;6543;48.836;10.092;2022-09-21T07:05:04;6.70;99.90
12957;DHT22;6543;48.836;10.092;2022-09-21T07:07:31;6.80;99.90
12957;DHT22;6543;48.836;10.092;2022-09-21T07:09:58;7.00;99.90
12957;DHT22;6543;48.836;10.092;2022-09-21T07:12:26;7.10;99.90
12957;DHT22;6543;48.836;10.092;2022-09-21T07:14:55;7.20;99.90
12957;DHT22;6543;48.836;10.092;2022-09-21T07:17:21;7.30;99.90
12957;DHT22;6543;48.836;10.092;2022-09-21T07:19:48;7.30;99.90
12957;DHT22;6543;48.836;10.092;2022-09-21T07:22:16;7.40;99.90
12957;DHT22;6543;48.836;10.092;2022-09-21T07:24:42;7.40;99.90
12957;DHT22;6543;48.836;10.092;2022-09-21T07:27:09;7.50;99.90
12957;DHT22;6543;48.836;10.092;2022-09-21T07:29:36;7.50;99.90
12957;DHT22;6543;48.836;10.092;2022-09-21T07:32:04;7.50;99.90
12957;DHT22;6543;48.836;10.092;2022-09-21T07:34:34;7.60;99.90
12957;DHT22;6543;48.836;10.092;2022-09-21T07:37:01;7.70;99.90
12957;DHT22;6543;48.836;10.092;2022-09-21T07:39:28;7.90;99.90
12957;DHT22;6543;48.836;10.092;2022-09-21T07:41:55;8.10;99.90
12957;DHT22;6543;48.836;10.092;2022-09-21T07:44:23;8.30;99.90
12957;DHT22;6543;48.836;10.092;2022-09-21T07:46:51;8.50;99.90
12957;DHT22;6543;48.836;10.092;2022-09-21T07:49:19;8.60;99.90
12957;DHT22;6543;48.836;10.092;2022-09-21T07:51:46;9.60;99.90
12957;DHT22;6543;48.836;10.092;2022-09-21T07:54:13;9.00;99.90
12957;DHT22;6543;48.836;10.092;2022-09-21T07:56:41;9.10;99.90
12957;DHT22;6543;48.836;10.092;2022-09-21T07:59:27;9.30;99.90
12957;DHT22;6543;48.836;10.092;2022-09-21T08:01:57;9.50;99.90
12957;DHT22;6543;48.836;10.092;2022-09-21T08:04:25;9.60;99.90
12957;DHT22;6543;48.836;10.092;2022-09-21T08:06:52;9.80;99.90
12957;DHT22;6543;48.836;10.092;2022-09-21T08:09:18;10.00;99.90
12957;DHT22;6543;48.836;10.092;2022-09-21T08:11:45;10.20;99.90
12957;DHT22;6543;48.836;10.092;2022-09-21T08:14:12;10.40;99.90
12957;DHT22;6543;48.836;10.092;2022-09-21T08:16:44;10.60;99.90
12957;DHT22;6543;48.836;10.092;2022-09-21T08:19:12;10.70;99.90
12957;DHT22;6543;48.836;10.092;2022-09-21T08:21:40;10.80;99.90
12957;DHT22;6543;48.836;10.092;2022-09-21T08:24:08;11.10;99.90
12957;DHT22;6543;48.836;10.092;2022-09-21T08:26:35;11.50;99.90
12957;DHT22;6543;48.836;10.092;2022-09-21T08:29:02;11.70;99.90
12957;DHT22;6543;48.836;10.092;2022-09-21T08:31:31;12.00;99.90
12957;DHT22;6543;48.836;10.092;2022-09-21T08:33:58;12.00;99.90
12957;DHT22;6543;48.836;10.092;2022-09-21T08:36:26;11.90;99.90
12957;DHT22;6543;48.836;10.092;2022-09-21T08:38:54;12.20;99.90
12957;DHT22;6543;48.836;10.092;2022-09-21T08:41:23;12.30;99.90
12957;DHT22;6543;48.836;10.092;2022-09-21T08:43:52;12.40;99.90
12957;DHT22;6543;48.836;10.092;2022-09-21T08:46:23;12.40;99.90
12957;DHT22;6543;48.836;10.092;2022-09-21T08:48:55;12.30;99.90
12957;DHT22;6543;48.836;10.092;2022-09-21T08:51:27;12.30;99.90
12957;DHT22;6543;48.836;10.092;2022-09-21T08:53:59;12.30;99.90
12957;DHT22;6543;48.836;10.092;2022-09-21T08:56:29;12.10;99.90
12957;DHT22;6543;48.836;10.092;2022-09-21T08:58:56;12.20;99.90
12957;DHT22;6543;48.836;10.092;2022-09-21T09:01:46;12.20;99.90
12957;DHT22;6543;48.836;10.092;2022-09-21T09:04:34;12.50;99.90
12957;DHT22;6543;48.836;10.092;2022-09-21T09:07:17;12.40;99.90
12957;DHT22;6543;48.836;10.092;2022-09-21T09:10:02;12.40;99.90
12957;DHT22;6543;48.836;10.092;2022-09-21T09:12:41;12.60;99.90
12957;DHT22;6543;48.836;10.092;2022-09-21T09:18:06;12.60;99.90
12957;DHT22;6543;48.836;10.092;2022-09-21T09:20:38;12.40;99.90
12957;DHT22;6543;48.836;10.092;2022-09-21T09:23:09;12.70;99.90
12957;DHT22;6543;48.836;10.092;2022-09-21T09:25:41;12.60;99.90
12957;DHT22;6543;48.836;10.092;2022-09-21T09:28:24;12.70;99.90
12957;DHT22;6543;48.836;10.092;2022-09-21T09:30:58;12.90;99.90
12957;DHT22;6543;48.836;10.092;2022-09-21T09:33:29;13.00;99.90
12957;DHT22;6543;48.836;10.092;2022-09-21T09:36:00;12.90;99.90
12957;DHT22;6543;48.836;10.092;2022-09-21T09:38:33;12.90;99.90
12957;DHT22;6543;48.836;10.092;2022-09-21T09:41:27;13.10;99.90
12957;DHT22;6543;48.836;10.092;2022-09-21T09:44:10;13.30;99.90
12957;DHT22;6543;48.836;10.092;2022-09-21T09:46:51;13.20;99.90
12957;DHT22;6543;48.836;10.092;2022-09-21T09:49:30;13.40;99.90
12957;DHT22;6543;48.836;10.092;2022-09-21T09:51:59;12.80;99.90
12957;DHT22;6543;48.836;10.092;2022-09-21T09:54:27;12.70;99.90
12957;DHT22;6543;48.836;10.092;2022-09-21T09:56:56;12.90;99.90
12957;DHT22;6543;48.836;10.092;2022-09-21T09:59:28;13.00;99.90
12957;DHT22;6543;48.836;10.092;2022-09-21T10:01:59;14.00;99.90
12957;DHT22;6543;48.836;10.092;2022-09-21T10:04:27;13.20;99.90
12957;DHT22;6543;48.836;10.092;2022-09-21T10:06:54;13.60;99.90
12957;DHT22;6543;48.836;10.092;2022-09-21T10:09:26;14.10;99.90
12957;DHT22;6543;48.836;10.092;2022-09-21T10:11:56;13.80;99.90
12957;DHT22;6543;48.836;10.092;2022-09-21T10:14:26;14.00;99.90
12957;DHT22;6543;48.836;10.092;2022-09-21T10:16:55;14.20;99.90
12957;DHT22;6543;48.836;10.092;2022-09-21T10:19:24;13.90;99.90
12957;DHT22;6543;48.836;10.092;2022-09-21T10:21:55;13.90;99.90
12957;DHT22;6543;48.836;10.092;2022-09-21T10:24:24;13.50;99.90
12957;DHT22;6543;48.836;10.092;2022-09-21T10:26:54;13.40;99.90
12957;DHT22;6543;48.836;10.092;2022-09-21T10:29:32;13.70;99.90
12957;DHT22;6543;48.836;10.092;2022-09-21T10:32:16;13.50;99.90
12957;DHT22;6543;48.836;10.092;2022-09-21T10:35:00;13.60;99.90
12957;DHT22;6543;48.836;10.092;2022-09-21T10:37:29;13.60;99.90
12957;DHT22;6543;48.836;10.092;2022-09-21T10:39:58;13.70;99.90
12957;DHT22;6543;48.836;10.092;2022-09-21T10:42:27;13.40;99.90
12957;DHT22;6543;48.836;10.092;2022-09-21T10:45:12;13.40;99.90
12957;DHT22;6543;48.836;10.092;2022-09-21T10:47:42;13.60;99.90
12957;DHT22;6543;48.836;10.092;2022-09-21T10:50:22;13.80;99.90
12957;DHT22;6543;48.836;10.092;2022-09-21T10:52:50;13.50;99.90
12957;DHT22;6543;48.836;10.092;2022-09-21T10:55:22;13.70;99.90
12957;DHT22;6543;48.836;10.092;2022-09-21T10:57:55;13.60;99.90
12957;DHT22;6543;48.836;10.092;2022-09-21T11:00:33;13.80;99.90
12957;DHT22;6543;48.836;10.092;2022-09-21T11:06:10;14.10;99.90
12957;DHT22;6543;48.836;10.092;2022-09-21T11:08:44;14.00;99.90
12957;DHT22;6543;48.836;10.092;2022-09-21T11:11:41;14.10;99.90
12957;DHT22;6543;48.836;10.092;2022-09-21T11:14:15;14.30;99.90
12957;DHT22;6543;48.836;10.092;2022-09-21T11:16:52;14.00;99.90
12957;DHT22;6543;48.836;10.092;2022-09-21T11:19:29;13.80;99.90
12957;DHT22;6543;48.836;10.092;2022-09-21T11:22:03;14.00;99.90
12957;DHT22;6543;48.836;10.092;2022-09-21T11:24:37;14.10;99.90
12957;DHT22;6543;48.836;10.092;2022-09-21T11:27:11;14.10;99.90
12957;DHT22;6543;48.836;10.092;2022-09-21T11:29:57;14.30;99.90
12957;DHT22;6543;48.836;10.092;2022-09-21T11:32:47;14.40;99.90
12957;DHT22;6543;48.836;10.092;2022-09-21T11:35:38;14.50;99.90
12957;DHT22;6543;48.836;10.092;2022-09-21T11:59:12;14.50;99.90
12957;DHT22;6543;48.836;10.092;2022-09-21T12:04:40;14.40;99.90
12957;DHT22;6543;48.836;10.092;2022-09-21T12:07:26;14.40;99.90
12957;DHT22;6543;48.836;10.092;2022-09-21T12:10:15;14.50;99.90
12957;DHT22;6543;48.836;10.092;2022-09-21T12:12:49;14.70;99.90
12957;DHT22;6543;48.836;10.092;2022-09-21T12:15:22;14.80;99.90
12957;DHT22;6543;48.836;10.092;2022-09-21T12:17:56;14.90;99.90
12957;DHT22;6543;48.836;10.092;2022-09-21T12:20:34;15.10;99.90
12957;DHT22;6543;48.836;10.092;2022-09-21T12:23:11;14.90;99.90
12957;DHT22;6543;48.836;10.092;2022-09-21T12:25:43;14.70;99.90
12957;DHT22;6543;48.836;10.092;2022-09-21T12:28:16;14.60;99.90
12957;DHT22;6543;48.836;10.092;2022-09-21T12:30:48;14.40;99.90
12957;DHT22;6543;48.836;10.092;2022-09-21T12:33:20;14.60;99.90
12957;DHT22;6543;48.836;10.092;2022-09-21T12:35:53;14.50;99.90
12957;DHT22;6543;48.836;10.092;2022-09-21T12:38:25;14.40;99.90
12957;DHT22;6543;48.836;10.092;2022-09-21T12:40:55;14.50;99.90
12957;DHT22;6543;48.836;10.092;2022-09-21T12:43:31;14.90;99.90
12957;DHT22;6543;48.836;10.092;2022-09-21T12:46:03;15.30;99.90
12957;DHT22;6543;48.836;10.092;2022-09-21T12:48:33;15.30;99.90
12957;DHT22;6543;48.836;10.092;2022-09-21T12:51:09;15.60;99.90
12957;DHT22;6543;48.836;10.092;2022-09-21T12:53:40;15.30;99.90
12957;DHT22;6543;48.836;10.092;2022-09-21T12:56:14;15.50;99.90
12957;DHT22;6543;48.836;10.092;2022-09-21T12:58:52;15.30;99.90
12957;DHT22;6543;48.836;10.092;2022-09-21T13:01:28;14.80;99.90
12957;DHT22;6543;48.836;10.092;2022-09-21T13:04:10;15.00;99.90
12957;DHT22;6543;48.836;10.092;2022-09-21T13:06:53;15.20;99.90
12957;DHT22;6543;48.836;10.092;2022-09-21T13:09:25;15.50;99.90
12957;DHT22;6543;48.836;10.092;2022-09-21T13:11:56;15.40;99.90
12957;DHT22;6543;48.836;10.092;2022-09-21T13:14:25;15.50;99.90
12957;DHT22;6543;48.836;10.092;2022-09-21T13:16:55;15.50;99.90
12957;DHT22;6543;48.836;10.092;2022-09-21T13:19:26;15.60;99.90
12957;DHT22;6543;48.836;10.092;2022-09-21T13:22:12;15.20;99.90
12957;DHT22;6543;48.836;10.092;2022-09-21T13:24:43;15.10;99.90
12957;DHT22;6543;48.836;10.092;2022-09-21T13:27:12;15.10;99.90
12957;DHT22;6543;48.836;10.092;2022-09-21T13:29:40;14.90;99.90
12957;DHT22;6543;48.836;10.092;2022-09-21T13:32:22;14.80;99.90
12957;DHT22;6543;48.836;10.092;2022-09-21T13:34:49;14.70;99.90
12957;DHT22;6543;48.836;10.092;2022-09-21T13:37:28;14.50;99.90
12957;DHT22;6543;48.836;10.092;2022-09-21T13:43:21;14.60;99.90
12957;DHT22;6543;48.836;10.092;2022-09-21T13:45:55;15.00;99.90
12957;DHT22;6543;48.836;10.092;2022-09-21T13:48:26;15.50;99.90
12957;DHT22;6543;48.836;10.092;2022-09-21T13:51:06;15.90;99.90
12957;DHT22;6543;48.836;10.092;2022-09-21T13:53:38;16.30;99.90
12957;DHT22;6543;48.836;10.092;2022-09-21T13:56:13;16.50;99.90
12957;DHT22;6543;48.836;10.092;2022-09-21T13:58:44;16.70;99.90
12957;DHT22;6543;48.836;10.092;2022-09-21T14:01:15;16.90;99.90
12957;DHT22;6543;48.836;10.092;2022-09-21T14:03:45;16.70;99.90
12957;DHT22;6543;48.836;10.092;2022-09-21T14:06:16;16.40;99.90
12957;DHT22;6543;48.836;10.092;2022-09-21T14:08:50;15.70;99.90
12957;DHT22;6543;48.836;10.092;2022-09-21T14:11:22;15.50;99.90
12957;DHT22;6543;48.836;10.092;2022-09-21T14:14:13;15.60;99.90
12957;DHT22;6543;48.836;10.092;2022-09-21T14:16:53;15.30;99.90
12957;DHT22;6543;48.836;10.092;2022-09-21T14:22:39;14.80;99.90
12957;DHT22;6543;48.836;10.092;2022-09-21T14:25:26;14.90;99.90
12957;DHT22;6543;48.836;10.092;2022-09-21T14:27:58;16.60;99.90
12957;DHT22;6543;48.836;10.092;2022-09-21T14:30:28;15.00;99.90
12957;DHT22;6543;48.836;10.092;2022-09-21T14:33:09;15.10;99.90
12957;DHT22;6543;48.836;10.092;2022-09-21T14:35:41;15.10;99.90
12957;DHT22;6543;48.836;10.092;2022-09-21T14:38:17;15.30;99.90
12957;DHT22;6543;48.836;10.092;2022-09-21T14:40:48;15.30;99.90
12957;DHT22;6543;48.836;10.092;2022-09-21T14:43:19;15.30;99.90
12957;DHT22;6543;48.836;10.092;2022-09-21T14:45:57;15.20;99.90
12957;DHT22;6543;48.836;10.092;2022-09-21T14:48:34;15.10;99.90
12957;DHT22;6543;48.836;10.092;2022-09-21T14:51:08;15.10;99.90
12957;DHT22;6543;48.836;10.092;2022-09-21T14:53:57;15.10;99.90
12957;DHT22;6543;48.836;10.092;2022-09-21T14:56:37;15.10;99.90
12957;DHT22;6543;48.836;10.092;2022-09-21T14:59:18;15.10;99.90
12957;DHT22;6543;48.836;10.092;2022-09-21T15:01:58;15.00;99.90
12957;DHT22;6543;48.836;10.092;2022-09-21T15:04:36;15.00;99.90
12957;DHT22;6543;48.836;10.092;2022-09-21T15:07:25;15.00;99.90
12957;DHT22;6543;48.836;10.092;2022-09-21T15:10:22;15.10;99.90
12957;DHT22;6543;48.836;10.092;2022-09-21T15:13:16;15.10;99.90
12957;DHT22;6543;48.836;10.092;2022-09-21T15:15:56;15.00;99.90
12957;DHT22;6543;48.836;10.092;2022-09-21T15:18:25;15.00;99.90
12957;DHT22;6543;48.836;10.092;2022-09-21T15:20:56;15.00;99.90
12957;DHT22;6543;48.836;10.092;2022-09-21T15:23:27;15.10;99.90
12957;DHT22;6543;48.836;10.092;2022-09-21T15:25:57;15.20;99.90
12957;DHT22;6543;48.836;10.092;2022-09-21T15:28:31;15.10;99.90
12957;DHT22;6543;48.836;10.092;2022-09-21T15:31:00;15.10;99.90
12957;DHT22;6543;48.836;10.092;2022-09-21T15:33:27;14.90;99.90
12957;DHT22;6543;48.836;10.092;2022-09-21T15:35:54;15.00;99.90
12957;DHT22;6543;48.836;10.092;2022-09-21T15:38:28;14.80;99.90
12957;DHT22;6543;48.836;10.092;2022-09-21T15:40:55;14.70;99.90
12957;DHT22;6543;48.836;10.092;2022-09-21T15:43:22;14.60;99.90
12957;DHT22;6543;48.836;10.092;2022-09-21T15:45:51;14.40;99.90
12957;DHT22;6543;48.836;10.092;2022-09-21T15:48:20;14.50;99.90
12957;DHT22;6543;48.836;10.092;2022-09-21T15:50:49;14.50;99.90
12957;DHT22;6543;48.836;10.092;2022-09-21T15:53:20;14.50;99.90
12957;DHT22;6543;48.836;10.092;2022-09-21T15:55:49;14.60;99.90
12957;DHT22;6543;48.836;10.092;2022-09-21T15:58:24;14.40;99.90
12957;DHT22;6543;48.836;10.092;2022-09-21T16:00:54;14.30;99.90
12957;DHT22;6543;48.836;10.092;2022-09-21T16:03:23;14.20;99.90
12957;DHT22;6543;48.836;10.092;2022-09-21T16:05:52;15.20;99.90
12957;DHT22;6543;48.836;10.092;2022-09-21T16:08:26;14.20;99.90
12957;DHT22;6543;48.836;10.092;2022-09-21T16:11:14;14.10;99.90
12957;DHT22;6543;48.836;10.092;2022-09-21T16:13:42;13.90;99.90
12957;DHT22;6543;48.836;10.092;2022-09-21T16:16:28;13.80;99.90
12957;DHT22;6543;48.836;10.092;2022-09-21T16:18:56;13.70;99.90
12957;DHT22;6543;48.836;10.092;2022-09-21T16:21:26;13.60;99.90
12957;DHT22;6543;48.836;10.092;2022-09-21T16:23:54;13.60;99.90
12957;DHT22;6543;48.836;10.092;2022-09-21T16:26:25;13.50;99.90
12957;DHT22;6543;48.836;10.092;2022-09-21T16:29:15;13.50;99.90
12957;DHT22;6543;48.836;10.092;2022-09-21T16:31:44;13.40;99.90
12957;DHT22;6543;48.836;10.092;2022-09-21T16:34:21;13.40;99.90
12957;DHT22;6543;48.836;10.092;2022-09-21T16:36:51;13.50;99.90
12957;DHT22;6543;48.836;10.092;2022-09-21T16:39:19;13.50;99.90
12957;DHT22;6543;48.836;10.092;2022-09-21T16:41:53;13.50;99.90
12957;DHT22;6543;48.836;10.092;2022-09-21T16:44:22;13.50;99.90